KMXO/MXO METAR and TAF weather

Enter ICAO airport designator
Station Type Date Time Source
KMXO METAR 2019/04/19 08:15 UTC NOAA

KMXO 190815Z AUTO 34007KT 10SM CLR 05/03 A2988 RMK AO2


Station Type Date Time Source
KMXO Decoded METAR 2019/04/19 08:15 UTC NOAA

Monticello Municipal, IA, United States (KMXO) 42-14N 091-10W
Apr 19, 2019 - 04:15 AM EDT / 2019.04.19 0815 UTC
Wind: from the NNW (340 degrees) at 8 MPH (7 KT):0
Visibility: 10 mile(s):0
Sky conditions: clear
Temperature: 41 F (5 C)
Dew Point: 37 F (3 C)
Relative Humidity: 86%
Pressure (altimeter): 29.88 in. Hg (1011 hPa)
ob: KMXO 190815Z AUTO 34007KT 10SM CLR 05/03 A2988 RMK AO2
cycle: 8

Station Type Date Time Source
KMXO TAF UTC NOAA

Error!

Example: see airport list